METAR Data
IDs: Format: Raw Decoded Include TAF

Data at: 0159 UTC 24 Sep 2018

KCEZ 240153Z AUTO 15003KT 10SM SCT120 16/02 A3005 RMK AO2 SLP128 T01610022
KCEZ 240053Z AUTO 29007KT 10SM CLR 24/01 A3005 RMK AO2 SLP119 T02390011
KCEZ 232353Z AUTO 10SM BKN100 26/02 A3005 RMK AO2 SLP117 T02610017 10278 20250 56015
KCEZ 232253Z AUTO 30008KT 10SM CLR 26/01 A3007 RMK AO2 SLP121 T02610011
KCEZ 232153Z AUTO 29010G16KT 10SM SCT110 26/01 A3008 RMK AO2 SLP127 T02610011
KCEZ 232053Z AUTO 27008KT 10SM CLR 27/02 A3011 RMK AO2 SLP131 T02670017 57023
KCEZ 231953Z AUTO 30011G17KT 10SM BKN100 27/02 A3013 RMK AO2 SLP139 T02720017
KCEZ 231853Z AUTO 27006KT 10SM BKN110 26/02 A3016 RMK AO2 SLP147 T02610017
KCEZ 231753Z AUTO 10SM BKN110 26/02 A3019 RMK AO2 SLP154 T02560022 10256 20039 58006
KCEZ 231653Z AUTO 00000KT 10SM CLR 23/02 A3021 RMK AO2 SLP166 T02280017
KCEZ 231553Z AUTO VRB04KT 10SM SCT110 21/00 A3022 RMK AO2 SLP172 T02060000
KCEZ 231453Z AUTO 00000KT 10SM CLR 12/01 A3021 RMK AO2 SLP181 T01170006 53004
KCEZ 231353Z AUTO 10004KT 10SM CLR 07/M01 A3021 RMK AO2 SLP187 T00671011
KCEZ 231253Z AUTO 00000KT 10SM CLR 05/M02 A3019 RMK AO2 SLP170 T00501017
KCEZ 231153Z AUTO 00000KT 10SM CLR 04/M02 A3019 RMK AO2 SLP166 T00441022 10111 20044 53001
KCEZ 231053Z AUTO 05005KT 10SM CLR 05/M02 A3018 RMK AO2 SLP160 T00501017
KCEZ 230953Z AUTO 00000KT 10SM CLR 05/M02 A3019 RMK AO2 SLP163 T00501017
KCEZ 230853Z AUTO 07003KT 10SM CLR 06/M02 A3019 RMK AO2 SLP160 T00611022 58003
KCEZ 230753Z AUTO 10004KT 10SM CLR 07/M01 A3020 RMK AO2 SLP161 T00721011
KCEZ 230653Z AUTO 06004KT 10SM CLR 09/M02 A3020 RMK AO2 SLP162 T00941017 402830061
KCEZ 230553Z AUTO 07004KT 10SM CLR 11/M02 A3020 RMK AO2 SLP162 T01061017 10267 20100 50002
KCEZ 230453Z AUTO 07005KT 10SM CLR 12/M02 A3020 RMK AO2 SLP164 T01171022
KCEZ 230353Z AUTO 04005KT 10SM CLR 12/M02 A3020 RMK AO2 SLP167 T01221022
KCEZ 230253Z AUTO 06006KT 10SM CLR 14/M01 A3019 RMK AO2 SLP169 T01391006 53002
KCEZ 230153Z AUTO 13004KT 10SM CLR 16/M01 A3018 RMK AO2 SLP174 T01561006
KCEZ 230053Z AUTO 29006KT 10SM CLR 24/M02 A3018 RMK AO2 SLP158 T02391022
KCEZ 222353Z AUTO 29010KT 10SM CLR 27/M02 A3018 RMK AO2 SLP155 T02671017 10283 20233 56015
KCEZ 222253Z AUTO 29008G18KT 10SM CLR 27/M02 A3019 RMK AO2 SLP152 T02671017
KCEZ 222153Z AUTO 28009G17KT 10SM CLR 27/M02 A3020 RMK AO2 SLP163 T02721022
KCEZ 222053Z AUTO 19008KT 10SM CLR 27/M01 A3024 RMK AO2 SLP175 T02671006 58024
KCEZ 221953Z AUTO 19010KT 10SM CLR 27/01 A3027 RMK AO2 SLP184 T02670006
KCEZ 221853Z AUTO VRB03KT 10SM CLR 25/04 A3030 RMK AO2 SLP200 T02500039
KCEZ 221753Z AUTO VRB06KT 10SM CLR 24/07 A3032 RMK AO2 SLP209 T02390067 10244 20072 58009
KCEZ 221653Z AUTO 00000KT 10SM CLR 22/07 A3034 RMK AO2 SLP214 T02170072
KCEZ 221553Z AUTO 28003KT 10SM CLR 19/07 A3035 RMK AO2 SLP220 T01940067
KCEZ 221453Z AUTO 00000KT 10SM CLR 15/06 A3036 RMK AO2 SLP230 T01500056 52009